createdAt,value
2019-04-07T00:00:38.578Z,11.88
2019-04-07T00:03:08.182Z,11.84
2019-04-07T00:05:37.797Z,11.77
2019-04-07T00:08:07.363Z,11.72
2019-04-07T00:10:36.989Z,11.68
2019-04-07T00:13:07.104Z,11.63
2019-04-07T00:15:36.913Z,11.60
2019-04-07T00:18:06.666Z,11.58
2019-04-07T00:20:36.448Z,11.55
2019-04-07T00:23:05.978Z,11.51
2019-04-07T00:25:35.447Z,11.47
2019-04-07T00:28:05.991Z,11.42
2019-04-07T00:30:36.135Z,11.39
2019-04-07T00:33:06.353Z,11.34
2019-04-07T00:35:36.573Z,11.30
2019-04-07T00:38:05.950Z,11.24
2019-04-07T00:40:38.175Z,11.19
2019-04-07T00:43:07.686Z,11.15
2019-04-07T00:45:37.161Z,11.10
2019-04-07T00:48:06.903Z,11.06
2019-04-07T00:50:36.474Z,11.02
2019-04-07T00:53:06.530Z,10.98
2019-04-07T00:55:36.381Z,10.94
2019-04-07T00:58:06.185Z,10.90
2019-04-07T01:00:37.389Z,10.88
2019-04-07T01:03:07.291Z,10.86
2019-04-07T01:05:40.497Z,10.83
2019-04-07T01:08:08.062Z,10.82
2019-04-07T01:10:38.059Z,10.78
2019-04-07T01:13:07.728Z,10.74
2019-04-07T01:15:37.151Z,10.71
2019-04-07T01:18:06.644Z,10.68
2019-04-07T01:20:36.193Z,10.63
2019-04-07T01:23:05.620Z,10.58
2019-04-07T01:25:35.741Z,10.51
2019-04-07T01:28:06.696Z,10.46
2019-04-07T01:30:37.220Z,10.42
2019-04-07T01:33:07.569Z,10.36
2019-04-07T01:35:47.274Z,10.31
2019-04-07T01:38:08.266Z,10.25
2019-04-07T01:40:37.935Z,10.19
2019-04-07T01:43:25.087Z,10.14
2019-04-07T01:46:05.229Z,10.10
2019-04-07T01:48:53.267Z,10.07
2019-04-07T01:51:24.632Z,10.04
2019-04-07T01:54:06.433Z,10.04
2019-04-07T01:56:43.735Z,10.03
2019-04-07T01:59:17.863Z,10.02
2019-04-07T02:01:49.284Z,10.01
2019-04-07T02:04:20.458Z,9.99
2019-04-07T02:06:55.368Z,9.97
2019-04-07T02:09:43.584Z,9.94
2019-04-07T02:12:20.312Z,9.90
2019-04-07T02:14:57.573Z,9.85
2019-04-07T02:17:28.738Z,9.83
2019-04-07T02:20:03.796Z,9.83
2019-04-07T02:22:37.791Z,9.80
2019-04-07T02:25:11.968Z,9.77
2019-04-07T02:27:43.066Z,9.75
2019-04-07T02:30:14.548Z,9.73
2019-04-07T02:32:48.685Z,9.71
2019-04-07T02:35:25.948Z,9.68
2019-04-07T02:37:59.410Z,9.66
2019-04-07T02:40:42.722Z,9.62
2019-04-07T02:43:16.850Z,9.60
2019-04-07T02:45:47.948Z,9.56
2019-04-07T02:48:35.207Z,9.53
2019-04-07T02:51:09.659Z,9.50
2019-04-07T02:53:43.673Z,9.48
2019-04-07T02:56:17.680Z,9.44
2019-04-07T02:58:55.081Z,9.41
2019-04-07T03:01:43.416Z,9.36
2019-04-07T03:04:15.855Z,9.32
2019-04-07T03:06:53.522Z,9.23
2019-04-07T03:09:28.251Z,9.19
2019-04-07T03:12:12.382Z,9.16
2019-04-07T03:14:43.628Z,9.12
2019-04-07T03:17:17.208Z,9.11
2019-04-07T03:19:48.648Z,9.07
2019-04-07T03:22:36.742Z,9.08
2019-04-07T03:25:26.028Z,9.08
2019-04-07T03:28:06.785Z,9.10
2019-04-07T03:30:56.588Z,9.09
2019-04-07T03:33:47.759Z,9.10
2019-04-07T03:36:42.569Z,9.09
2019-04-07T03:39:24.466Z,9.10
2019-04-07T03:41:55.595Z,9.11
2019-04-07T03:44:36.543Z,9.12
2019-04-07T03:47:08.606Z,9.10
2019-04-07T03:49:39.921Z,9.08
2019-04-07T03:52:14.066Z,9.04
2019-04-07T03:55:01.413Z,9.02
2019-04-07T03:57:47.895Z,8.97
2019-04-07T04:01:05.248Z,8.95
2019-04-07T04:03:42.350Z,8.92
2019-04-07T04:06:28.500Z,8.88
2019-04-07T04:09:00.494Z,8.84
2019-04-07T04:11:34.255Z,8.79
2019-04-07T04:14:15.185Z,8.78
2019-04-07T04:16:46.348Z,8.76
2019-04-07T04:19:16.883Z,8.74
2019-04-07T04:21:46.311Z,8.72
2019-04-07T04:24:16.740Z,8.68
2019-04-07T04:26:47.643Z,8.66
2019-04-07T04:29:17.103Z,8.63
2019-04-07T04:31:47.352Z,8.58
2019-04-07T04:34:17.356Z,8.55
2019-04-07T04:36:47.883Z,8.53
2019-04-07T04:39:19.694Z,8.53
2019-04-07T04:41:49.133Z,8.54
2019-04-07T04:44:18.817Z,8.54
2019-04-07T04:46:48.640Z,8.54
2019-04-07T04:49:19.706Z,8.55
2019-04-07T04:51:50.290Z,8.51
2019-04-07T04:54:19.694Z,8.52
2019-04-07T04:56:49.152Z,8.53
2019-04-07T04:59:18.733Z,8.53
2019-04-07T05:01:48.805Z,8.55
2019-04-07T05:04:18.227Z,8.57
2019-04-07T05:06:47.862Z,8.60
2019-04-07T05:09:18.032Z,8.63
2019-04-07T05:11:47.611Z,8.66
2019-04-07T05:14:17.076Z,8.70
2019-04-07T05:16:46.541Z,8.75
2019-04-07T05:19:16.332Z,8.79
2019-04-07T05:21:45.820Z,8.83
2019-04-07T05:24:15.814Z,8.87
2019-04-07T05:26:45.589Z,8.91
2019-04-07T05:29:15.009Z,8.93
2019-04-07T05:31:44.825Z,8.96
2019-04-07T05:34:18.604Z,8.99
2019-04-07T05:36:45.673Z,9.01
2019-04-07T05:39:15.303Z,9.05
2019-04-07T05:41:45.065Z,9.10
2019-04-07T05:44:14.541Z,9.16
2019-04-07T05:46:43.995Z,9.22
2019-04-07T05:49:15.777Z,9.31
2019-04-07T05:51:44.829Z,9.36
2019-04-07T05:54:16.920Z,9.43
2019-04-07T05:56:45.956Z,9.49
2019-04-07T05:59:15.724Z,9.54
2019-04-07T06:01:45.561Z,9.61
2019-04-07T06:04:18.392Z,9.69
2019-04-07T06:06:46.373Z,9.76
2019-04-07T06:09:18.911Z,9.82
2019-04-07T06:11:47.615Z,9.86
2019-04-07T06:14:17.269Z,9.93
2019-04-07T06:16:46.938Z,10.00
2019-04-07T06:19:17.053Z,10.05
2019-04-07T06:21:48.838Z,10.10
2019-04-07T06:24:20.094Z,10.17
2019-04-07T06:26:50.301Z,10.24
2019-04-07T06:29:20.051Z,10.32
2019-04-07T06:31:49.597Z,10.41
2019-04-07T06:34:20.066Z,10.49
2019-04-07T06:36:54.133Z,10.56
2019-04-07T06:39:21.446Z,10.64
2019-04-07T06:41:51.306Z,10.70
2019-04-07T06:44:22.424Z,10.78
2019-04-07T06:47:02.783Z,10.88
2019-04-07T06:49:44.717Z,10.95
2019-04-07T06:52:38.764Z,11.02
2019-04-07T06:55:22.720Z,11.10
2019-04-07T06:58:01.965Z,11.20
2019-04-07T07:00:36.450Z,11.34
2019-04-07T07:03:19.786Z,11.48
2019-04-07T07:06:08.446Z,11.62
2019-04-07T07:08:46.113Z,11.76
2019-04-07T07:11:28.866Z,11.92
2019-04-07T07:14:16.218Z,12.05
2019-04-07T07:17:00.585Z,12.16
2019-04-07T07:19:34.676Z,12.29
2019-04-07T07:22:16.519Z,12.42
2019-04-07T07:24:47.190Z,12.55
2019-04-07T07:27:17.478Z,12.65
2019-04-07T07:29:47.629Z,12.70
2019-04-07T07:32:18.563Z,12.80
2019-04-07T07:34:47.999Z,12.89
2019-04-07T07:37:17.524Z,12.99
2019-04-07T07:39:47.141Z,13.08
2019-04-07T07:42:19.088Z,13.19
2019-04-07T07:44:48.331Z,13.30
2019-04-07T07:47:20.851Z,13.41
2019-04-07T07:49:49.777Z,13.52
2019-04-07T07:52:21.028Z,13.62
2019-04-07T07:54:50.874Z,13.72
2019-04-07T07:57:22.786Z,13.84
2019-04-07T07:59:52.080Z,13.94
2019-04-07T08:02:22.010Z,14.04
2019-04-07T08:04:52.765Z,14.14
2019-04-07T08:07:23.591Z,14.21
2019-04-07T08:09:54.364Z,14.29
2019-04-07T08:12:25.428Z,14.37
2019-04-07T08:14:57.187Z,14.42
2019-04-07T08:17:27.575Z,14.50
2019-04-07T08:19:57.768Z,14.58
2019-04-07T08:22:32.493Z,14.65
2019-04-07T08:24:58.825Z,14.70
2019-04-07T08:27:31.711Z,14.78
2019-04-07T08:29:59.472Z,14.86
2019-04-07T08:32:31.989Z,14.94
2019-04-07T08:35:03.891Z,15.02
2019-04-07T08:37:31.484Z,15.09
2019-04-07T08:40:05.037Z,15.19
2019-04-07T08:42:32.658Z,15.31
2019-04-07T08:45:03.330Z,15.39
2019-04-07T08:47:33.450Z,15.48
2019-04-07T08:50:02.981Z,15.55
2019-04-07T08:52:33.196Z,15.66
2019-04-07T08:55:03.083Z,15.78
2019-04-07T08:57:32.609Z,15.84
2019-04-07T09:00:05.058Z,15.91
2019-04-07T09:02:37.053Z,15.97
2019-04-07T09:05:08.135Z,16.08
2019-04-07T09:07:39.082Z,16.18
2019-04-07T09:10:11.476Z,16.27
2019-04-07T09:12:41.820Z,16.36
2019-04-07T09:15:13.262Z,16.48
2019-04-07T09:17:47.155Z,16.56
2019-04-07T09:20:33.613Z,16.65
2019-04-07T09:23:11.343Z,16.73
2019-04-07T09:25:59.500Z,16.82
2019-04-07T09:28:31.753Z,16.86
2019-04-07T09:31:04.258Z,16.88
2019-04-07T09:33:38.874Z,16.94
2019-04-07T09:36:10.212Z,17.00
2019-04-07T09:38:42.065Z,17.07
2019-04-07T09:41:27.486Z,17.17
2019-04-07T09:44:03.993Z,17.25
2019-04-07T09:46:51.526Z,17.34
2019-04-07T09:49:37.908Z,17.46
2019-04-07T09:52:16.068Z,17.55
2019-04-07T09:54:59.487Z,17.67
2019-04-07T09:57:40.891Z,17.78
2019-04-07T10:00:14.601Z,17.87
2019-04-07T10:02:49.149Z,17.95
2019-04-07T10:05:40.239Z,18.05
2019-04-07T10:08:24.922Z,18.15
2019-04-07T10:10:59.419Z,18.20
2019-04-07T10:13:30.730Z,18.28
2019-04-07T10:16:02.355Z,18.30
2019-04-07T10:18:50.920Z,18.33
2019-04-07T10:21:22.210Z,18.35
2019-04-07T10:24:02.808Z,18.34
2019-04-07T10:26:39.974Z,18.33
2019-04-07T10:29:28.990Z,18.29
2019-04-07T10:32:00.055Z,18.27
2019-04-07T10:34:43.670Z,18.28
2019-04-07T10:37:15.588Z,18.32
2019-04-07T10:39:46.835Z,18.39
2019-04-07T10:42:30.778Z,18.38
2019-04-07T10:45:01.931Z,18.42
2019-04-07T10:47:33.570Z,18.50
2019-04-07T10:50:08.880Z,18.56
2019-04-07T10:52:43.748Z,18.62
2019-04-07T10:55:18.426Z,18.70
2019-04-07T10:58:05.879Z,18.72
2019-04-07T11:00:41.154Z,18.70
2019-04-07T11:03:26.078Z,18.74
2019-04-07T11:06:00.421Z,18.78
2019-04-07T11:08:34.558Z,18.79
2019-04-07T11:11:22.267Z,18.79
2019-04-07T11:13:56.819Z,18.88
2019-04-07T11:16:44.208Z,18.94
2019-04-07T11:19:16.134Z,18.84
2019-04-07T11:21:47.386Z,18.84
2019-04-07T11:24:35.232Z,18.85
2019-04-07T11:27:08.168Z,18.88
2019-04-07T11:29:39.644Z,18.95
2019-04-07T11:32:19.930Z,18.95
2019-04-07T11:34:53.808Z,19.04
2019-04-07T11:37:27.577Z,19.12
2019-04-07T11:40:02.241Z,19.15
2019-04-07T11:42:42.684Z,19.15
2019-04-07T11:45:16.799Z,19.19
2019-04-07T11:47:54.501Z,19.26
2019-04-07T11:50:42.335Z,19.32
2019-04-07T11:53:19.924Z,19.36
2019-04-07T11:56:11.239Z,19.40
2019-04-07T11:58:59.079Z,19.36
2019-04-07T12:01:49.787Z,19.38
2019-04-07T12:04:24.039Z,19.44
2019-04-07T12:07:11.094Z,19.49
2019-04-07T12:09:59.626Z,19.47
2019-04-07T12:12:31.182Z,19.49
2019-04-07T12:15:14.313Z,19.56
2019-04-07T12:17:52.419Z,19.59
2019-04-07T12:20:26.997Z,19.56
2019-04-07T12:22:56.516Z,19.55
2019-04-07T12:25:29.366Z,19.62
2019-04-07T12:28:18.880Z,19.70
2019-04-07T12:31:06.496Z,19.74
2019-04-07T12:33:52.774Z,19.75
2019-04-07T12:36:30.215Z,19.79
2019-04-07T12:38:57.392Z,19.83
2019-04-07T12:41:32.225Z,19.86
2019-04-07T12:44:04.526Z,19.89
2019-04-07T12:46:52.904Z,19.95
2019-04-07T12:49:35.083Z,19.96
2019-04-07T12:52:28.055Z,20.00
2019-04-07T12:55:00.425Z,19.95
2019-04-07T12:57:39.525Z,19.94
2019-04-07T13:00:19.174Z,19.91
2019-04-07T13:02:53.798Z,19.89
2019-04-07T13:05:39.207Z,19.93
2019-04-07T13:08:14.461Z,19.95
2019-04-07T13:11:07.519Z,19.95
2019-04-07T13:13:53.451Z,20.00
2019-04-07T13:16:27.838Z,20.05
2019-04-07T13:19:15.650Z,20.07
2019-04-07T13:21:57.284Z,20.07
2019-04-07T13:24:35.147Z,20.05
2019-04-07T13:27:06.826Z,20.06
2019-04-07T13:29:44.467Z,20.06
2019-04-07T13:32:37.132Z,20.05
2019-04-07T13:35:11.908Z,20.04
2019-04-07T13:37:52.250Z,20.08
2019-04-07T13:40:26.424Z,20.17
2019-04-07T13:43:01.953Z,20.22
2019-04-07T13:45:32.970Z,20.25
2019-04-07T13:48:20.844Z,20.33
2019-04-07T13:51:02.092Z,20.35
2019-04-07T13:53:36.780Z,20.33
2019-04-07T13:56:27.511Z,20.42
2019-04-07T13:59:02.088Z,20.52
2019-04-07T14:01:53.377Z,20.60
2019-04-07T14:04:42.391Z,20.64
2019-04-07T14:07:22.431Z,20.68
2019-04-07T14:09:57.154Z,20.70
2019-04-07T14:12:37.895Z,20.73
2019-04-07T14:15:12.529Z,20.75
2019-04-07T14:17:46.201Z,20.80
2019-04-07T14:20:26.878Z,20.84
2019-04-07T14:23:04.313Z,20.88
2019-04-07T14:25:47.319Z,20.91
2019-04-07T14:28:20.504Z,20.91
2019-04-07T14:30:57.364Z,20.98
2019-04-07T14:33:31.845Z,21.01
2019-04-07T14:36:19.584Z,20.99
2019-04-07T14:39:00.070Z,20.92
2019-04-07T14:41:37.845Z,20.82
2019-04-07T14:44:21.442Z,20.78
2019-04-07T14:46:55.598Z,20.76
2019-04-07T14:49:30.574Z,20.76
2019-04-07T14:52:03.621Z,20.70
2019-04-07T14:54:57.130Z,20.63
2019-04-07T14:57:28.758Z,20.49
2019-04-07T15:00:00.064Z,20.32
2019-04-07T15:02:30.235Z,20.18
2019-04-07T15:05:03.044Z,20.24
2019-04-07T15:07:50.489Z,20.31
2019-04-07T15:10:21.730Z,20.35
2019-04-07T15:13:05.317Z,20.35
2019-04-07T15:15:35.676Z,20.29
2019-04-07T15:18:05.226Z,20.14
2019-04-07T15:20:34.690Z,20.03
2019-04-07T15:23:04.444Z,19.91
2019-04-07T15:25:34.096Z,19.79
2019-04-07T15:28:04.341Z,19.73
2019-04-07T15:30:33.891Z,19.73
2019-04-07T15:33:04.239Z,19.71
2019-04-07T15:35:35.235Z,19.72
2019-04-07T15:38:05.406Z,19.70
2019-04-07T15:40:36.479Z,19.72
2019-04-07T15:43:09.143Z,19.71
2019-04-07T15:45:39.720Z,19.72
2019-04-07T15:48:08.848Z,19.72
2019-04-07T15:50:38.330Z,19.67
2019-04-07T15:53:07.852Z,19.67
2019-04-07T15:55:47.606Z,19.66
2019-04-07T15:58:09.574Z,19.64
2019-04-07T16:00:39.136Z,19.62
2019-04-07T16:03:08.621Z,19.61
2019-04-07T16:05:42.413Z,19.60
2019-04-07T16:08:11.549Z,19.55
2019-04-07T16:10:41.332Z,19.55
2019-04-07T16:13:11.051Z,19.50
2019-04-07T16:15:43.618Z,19.48
2019-04-07T16:18:12.551Z,19.46
2019-04-07T16:20:43.163Z,19.42
2019-04-07T16:23:16.812Z,19.39
2019-04-07T16:25:44.385Z,19.37
2019-04-07T16:28:15.967Z,19.34
2019-04-07T16:30:48.528Z,19.33
2019-04-07T16:33:17.194Z,19.28
2019-04-07T16:35:52.784Z,19.26
2019-04-07T16:38:18.258Z,19.21
2019-04-07T16:40:48.021Z,19.16
2019-04-07T16:43:18.989Z,19.10
2019-04-07T16:45:48.860Z,19.07
2019-04-07T16:48:18.440Z,19.05
2019-04-07T16:50:51.825Z,19.00
2019-04-07T16:53:19.355Z,18.95
2019-04-07T16:55:53.787Z,18.93
2019-04-07T16:58:21.348Z,18.87
2019-04-07T17:00:51.958Z,18.82
2019-04-07T17:03:21.745Z,18.75
2019-04-07T17:05:55.670Z,18.71
2019-04-07T17:08:24.684Z,18.67
2019-04-07T17:10:53.990Z,18.61
2019-04-07T17:13:32.131Z,18.53
2019-04-07T17:15:55.246Z,18.48
2019-04-07T17:18:40.910Z,18.42
2019-04-07T17:21:15.051Z,18.35
2019-04-07T17:23:45.530Z,18.27
2019-04-07T17:26:15.182Z,18.18
2019-04-07T17:28:47.147Z,18.12
2019-04-07T17:31:16.292Z,18.04
2019-04-07T17:33:47.116Z,17.95
2019-04-07T17:36:19.691Z,17.89
2019-04-07T17:38:50.406Z,17.79
2019-04-07T17:41:20.209Z,17.68
2019-04-07T17:44:01.168Z,17.58
2019-04-07T17:46:47.327Z,17.49
2019-04-07T17:49:35.682Z,17.38
2019-04-07T17:52:24.737Z,17.26
2019-04-07T17:55:10.767Z,17.11
2019-04-07T17:57:48.057Z,17.00
2019-04-07T18:00:36.281Z,16.89
2019-04-07T18:03:22.512Z,16.78
2019-04-07T18:05:59.293Z,16.68
2019-04-07T18:08:47.383Z,16.58
2019-04-07T18:11:32.855Z,16.47
2019-04-07T18:14:05.750Z,16.40
2019-04-07T18:16:37.381Z,16.29
2019-04-07T18:19:13.058Z,16.22
2019-04-07T18:21:48.582Z,16.13
2019-04-07T18:24:21.394Z,16.04
2019-04-07T18:27:02.319Z,15.93
2019-04-07T18:29:35.089Z,15.85
2019-04-07T18:32:10.962Z,15.78
2019-04-07T18:34:53.091Z,15.69
2019-04-07T18:37:36.409Z,15.60
2019-04-07T18:40:27.307Z,15.52
2019-04-07T18:43:02.408Z,15.43
2019-04-07T18:45:45.909Z,15.34
2019-04-07T18:48:32.328Z,15.28
2019-04-07T18:51:23.221Z,15.21
2019-04-07T18:54:12.144Z,15.13
2019-04-07T18:56:47.519Z,15.05
2019-04-07T18:59:20.426Z,14.96
2019-04-07T19:01:55.729Z,14.91
2019-04-07T19:04:45.705Z,14.87
2019-04-07T19:07:21.279Z,14.83
2019-04-07T19:10:16.652Z,14.79
2019-04-07T19:12:43.502Z,14.75
2019-04-07T19:15:15.716Z,14.71
2019-04-07T19:17:48.120Z,14.68
2019-04-07T19:20:22.904Z,14.63
2019-04-07T19:22:54.454Z,14.57
2019-04-07T19:25:31.864Z,14.50
2019-04-07T19:28:04.503Z,14.43
2019-04-07T19:30:51.106Z,14.36
2019-04-07T19:33:39.722Z,14.31
2019-04-07T19:36:12.473Z,14.26
2019-04-07T19:38:47.498Z,14.18
2019-04-07T19:41:20.542Z,14.11
2019-04-07T19:43:53.199Z,14.08
2019-04-07T19:46:31.564Z,14.02
2019-04-07T19:49:18.953Z,13.97
2019-04-07T19:51:50.844Z,13.92
2019-04-07T19:54:35.631Z,13.88
2019-04-07T19:57:09.172Z,13.85
2019-04-07T19:59:52.789Z,13.80
2019-04-07T20:02:40.581Z,13.77
2019-04-07T20:05:24.090Z,13.71
2019-04-07T20:08:14.237Z,13.69
2019-04-07T20:10:45.611Z,13.67
2019-04-07T20:13:38.352Z,13.65
2019-04-07T20:16:11.834Z,13.61
2019-04-07T20:18:46.587Z,13.54
2019-04-07T20:21:19.613Z,13.50
2019-04-07T20:24:11.066Z,13.46
2019-04-07T20:26:45.459Z,13.43
2019-04-07T20:29:25.821Z,13.35
2019-04-07T20:31:57.089Z,13.30
2019-04-07T20:34:47.151Z,13.25
2019-04-07T20:37:23.720Z,13.21
2019-04-07T20:39:56.878Z,13.15
2019-04-07T20:42:31.142Z,13.11
2019-04-07T20:45:07.050Z,13.06
2019-04-07T20:47:51.521Z,13.00
2019-04-07T20:50:35.496Z,12.97
2019-04-07T20:53:12.500Z,12.94
2019-04-07T20:55:56.185Z,12.87
2019-04-07T20:58:46.441Z,12.83
2019-04-07T21:01:16.611Z,12.76
2019-04-07T21:03:51.939Z,12.69
2019-04-07T21:06:35.827Z,12.63
2019-04-07T21:09:15.379Z,12.59
2019-04-07T21:11:56.714Z,12.59
2019-04-07T21:14:34.684Z,12.57
2019-04-07T21:17:07.410Z,12.55
2019-04-07T21:19:38.872Z,12.49
2019-04-07T21:22:25.063Z,12.47
2019-04-07T21:24:59.109Z,12.43
2019-04-07T21:27:49.087Z,12.37
2019-04-07T21:30:20.729Z,12.30
2019-04-07T21:32:52.936Z,12.22
2019-04-07T21:35:34.775Z,12.18
2019-04-07T21:38:19.649Z,12.11
2019-04-07T21:40:51.430Z,12.03
2019-04-07T21:43:27.801Z,11.96
2019-04-07T21:46:00.955Z,11.92
2019-04-07T21:48:32.139Z,11.86
2019-04-07T21:51:16.827Z,11.76
2019-04-07T21:53:55.102Z,11.71
2019-04-07T21:56:32.789Z,11.63
2019-04-07T21:59:20.099Z,11.59
2019-04-07T22:01:51.262Z,11.56
2019-04-07T22:04:29.084Z,11.54
2019-04-07T22:07:17.470Z,11.53
2019-04-07T22:09:50.693Z,11.47
2019-04-07T22:12:20.260Z,11.44
2019-04-07T22:14:50.847Z,11.41
2019-04-07T22:17:21.321Z,11.40
2019-04-07T22:19:50.938Z,11.39
2019-04-07T22:22:20.380Z,11.37
2019-04-07T22:24:50.663Z,11.36
2019-04-07T22:27:24.469Z,11.34
2019-04-07T22:29:51.334Z,11.31
2019-04-07T22:32:23.124Z,11.30
2019-04-07T22:34:53.093Z,11.29
2019-04-07T22:37:23.475Z,11.29
2019-04-07T22:39:53.096Z,11.26
2019-04-07T22:42:22.653Z,11.21
2019-04-07T22:44:54.321Z,11.20
2019-04-07T22:47:23.648Z,11.18
2019-04-07T22:49:53.240Z,11.13
2019-04-07T22:52:22.672Z,11.11
2019-04-07T22:54:52.141Z,11.07
2019-04-07T22:57:21.874Z,11.02
2019-04-07T22:59:52.334Z,11.00
2019-04-07T23:02:22.133Z,10.96
2019-04-07T23:04:52.456Z,10.92
2019-04-07T23:07:21.954Z,10.90
2019-04-07T23:09:51.780Z,10.87
2019-04-07T23:12:21.454Z,10.83
2019-04-07T23:14:50.954Z,10.79
2019-04-07T23:17:21.396Z,10.76
2019-04-07T23:19:50.884Z,10.75
2019-04-07T23:22:20.331Z,10.72
2019-04-07T23:24:49.813Z,10.68
2019-04-07T23:27:20.048Z,10.63
2019-04-07T23:29:50.679Z,10.58
2019-04-07T23:32:21.244Z,10.54
2019-04-07T23:34:50.759Z,10.49
2019-04-07T23:37:20.209Z,10.44
2019-04-07T23:39:49.746Z,10.39
2019-04-07T23:42:20.374Z,10.35
2019-04-07T23:44:49.942Z,10.31
2019-04-07T23:47:19.499Z,10.26
2019-04-07T23:49:49.051Z,10.22
2019-04-07T23:52:18.731Z,10.19
2019-04-07T23:54:48.346Z,10.19
2019-04-07T23:57:17.805Z,10.16
2019-04-07T23:59:47.269Z,10.14
